Sargodha, Pakistan
Current Conditions -  °F | °C
As of 7:30 AM on Tuesday 21 Oct 2014 (Local Time) from OPLA Reporting Station
Smoke Smoke  
Wind Chill: 70°   Ceiling: Unl
Heat Index: 70°   Visibility: 1.5mi
Dew Point: 61°   Wind: 0mph
Humidity: 73%   Direction: NA
Pressure: 30"   Gusts: NA
Location:  32.08°N, 72.67°E
Report Text: OPLA 210230Z 00000KT 2500 FU NSC 21/16 Q1016 A29.97
Loading
Personal Weather Stations






























Interactive Weather Map
Tropical Storm Tracking
New forecast layout! Learn more

10-Day Weather Forecast

Advertisements
Track Severe Weather on mobile